sensor_id;sensor_type;location;lat;lon;timestamp;P1;durP1;ratioP1;P2;durP2;ratioP2
57778;SDS011;43608;49.486;9.640;2022-10-16T00:00:27;0.95;;;0.95;;
57778;SDS011;43608;49.486;9.640;2022-10-16T00:00:58;0.98;;;0.98;;
57778;SDS011;43608;49.486;9.640;2022-10-16T00:01:34;0.93;;;0.85;;
57778;SDS011;43608;49.486;9.640;2022-10-16T00:02:04;0.90;;;0.90;;
57778;SDS011;43608;49.486;9.640;2022-10-16T00:02:35;0.80;;;0.80;;
57778;SDS011;43608;49.486;9.640;2022-10-16T00:03:05;0.77;;;0.77;;
57778;SDS011;43608;49.486;9.640;2022-10-16T00:03:37;0.77;;;0.77;;
57778;SDS011;43608;49.486;9.640;2022-10-16T00:04:08;0.93;;;0.93;;
57778;SDS011;43608;49.486;9.640;2022-10-16T00:04:38;0.93;;;0.93;;
57778;SDS011;43608;49.486;9.640;2022-10-16T00:05:09;0.70;;;0.70;;
57778;SDS011;43608;49.486;9.640;2022-10-16T00:05:43;0.77;;;0.77;;
57778;SDS011;43608;49.486;9.640;2022-10-16T00:06:14;0.70;;;0.70;;
57778;SDS011;43608;49.486;9.640;2022-10-16T00:06:46;0.85;;;0.85;;
57778;SDS011;43608;49.486;9.640;2022-10-16T00:07:16;0.90;;;0.90;;
57778;SDS011;43608;49.486;9.640;2022-10-16T00:07:47;0.80;;;0.80;;
57778;SDS011;43608;49.486;9.640;2022-10-16T00:08:17;0.70;;;0.70;;
57778;SDS011;43608;49.486;9.640;2022-10-16T00:08:48;0.70;;;0.70;;
57778;SDS011;43608;49.486;9.640;2022-10-16T00:09:19;0.70;;;0.70;;
57778;SDS011;43608;49.486;9.640;2022-10-16T00:09:50;0.85;;;0.85;;
57778;SDS011;43608;49.486;9.640;2022-10-16T00:10:20;0.82;;;0.82;;
57778;SDS011;43608;49.486;9.640;2022-10-16T00:10:51;0.80;;;0.80;;
57778;SDS011;43608;49.486;9.640;2022-10-16T00:11:22;0.80;;;0.80;;
57778;SDS011;43608;49.486;9.640;2022-10-16T00:11:54;1.05;;;0.70;;
57778;SDS011;43608;49.486;9.640;2022-10-16T00:12:24;0.60;;;0.60;;
57778;SDS011;43608;49.486;9.640;2022-10-16T00:12:55;0.68;;;0.68;;
57778;SDS011;43608;49.486;9.640;2022-10-16T00:13:25;0.77;;;0.77;;
57778;SDS011;43608;49.486;9.640;2022-10-16T00:13:57;0.55;;;0.55;;
57778;SDS011;43608;49.486;9.640;2022-10-16T00:14:29;0.65;;;0.65;;
57778;SDS011;43608;49.486;9.640;2022-10-16T00:14:59;0.60;;;0.60;;
57778;SDS011;43608;49.486;9.640;2022-10-16T00:15:30;0.80;;;0.80;;
57778;SDS011;43608;49.486;9.640;2022-10-16T00:16:00;0.60;;;0.60;;
57778;SDS011;43608;49.486;9.640;2022-10-16T00:16:31;1.00;;;1.00;;
57778;SDS011;43608;49.486;9.640;2022-10-16T00:17:02;1.00;;;1.00;;
57778;SDS011;43608;49.486;9.640;2022-10-16T00:17:33;1.38;;;1.27;;
57778;SDS011;43608;49.486;9.640;2022-10-16T00:18:04;1.10;;;1.05;;
57778;SDS011;43608;49.486;9.640;2022-10-16T00:18:35;1.30;;;1.20;;
57778;SDS011;43608;49.486;9.640;2022-10-16T00:19:06;1.88;;;1.50;;
57778;SDS011;43608;49.486;9.640;2022-10-16T00:19:37;1.17;;;1.08;;
57778;SDS011;43608;49.486;9.640;2022-10-16T00:20:07;1.50;;;1.40;;
57778;SDS011;43608;49.486;9.640;2022-10-16T00:20:38;1.30;;;1.20;;
57778;SDS011;43608;49.486;9.640;2022-10-16T00:21:42;1.50;;;1.40;;
57778;SDS011;43608;49.486;9.640;2022-10-16T00:22:13;1.67;;;1.52;;
57778;SDS011;43608;49.486;9.640;2022-10-16T00:22:43;1.90;;;1.50;;
57778;SDS011;43608;49.486;9.640;2022-10-16T00:23:13;1.60;;;1.40;;
57778;SDS011;43608;49.486;9.640;2022-10-16T00:23:44;1.92;;;1.60;;
57778;SDS011;43608;49.486;9.640;2022-10-16T00:24:15;1.92;;;1.60;;
57778;SDS011;43608;49.486;9.640;2022-10-16T00:24:45;1.60;;;1.50;;
57778;SDS011;43608;49.486;9.640;2022-10-16T00:25:15;2.08;;;1.60;;
57778;SDS011;43608;49.486;9.640;2022-10-16T00:25:59;2.03;;;1.70;;
57778;SDS011;43608;49.486;9.640;2022-10-16T00:26:31;2.28;;;1.75;;
57778;SDS011;43608;49.486;9.640;2022-10-16T00:27:03;3.13;;;1.95;;
57778;SDS011;43608;49.486;9.640;2022-10-16T00:27:33;2.75;;;1.98;;
57778;SDS011;43608;49.486;9.640;2022-10-16T00:28:04;2.97;;;2.00;;
57778;SDS011;43608;49.486;9.640;2022-10-16T00:28:34;2.85;;;1.75;;
57778;SDS011;43608;49.486;9.640;2022-10-16T00:29:05;2.35;;;1.90;;
57778;SDS011;43608;49.486;9.640;2022-10-16T00:29:37;3.13;;;2.10;;
57778;SDS011;43608;49.486;9.640;2022-10-16T00:30:07;3.03;;;2.10;;
57778;SDS011;43608;49.486;9.640;2022-10-16T00:30:39;2.08;;;1.60;;
57778;SDS011;43608;49.486;9.640;2022-10-16T00:31:10;2.78;;;1.85;;
57778;SDS011;43608;49.486;9.640;2022-10-16T00:31:41;2.20;;;1.75;;
57778;SDS011;43608;49.486;9.640;2022-10-16T00:32:11;2.60;;;1.83;;
57778;SDS011;43608;49.486;9.640;2022-10-16T00:32:42;2.92;;;1.85;;
57778;SDS011;43608;49.486;9.640;2022-10-16T00:33:12;2.88;;;1.98;;
57778;SDS011;43608;49.486;9.640;2022-10-16T00:33:42;2.45;;;1.77;;
57778;SDS011;43608;49.486;9.640;2022-10-16T00:34:13;2.90;;;2.03;;
57778;SDS011;43608;49.486;9.640;2022-10-16T00:34:43;2.58;;;2.00;;
57778;SDS011;43608;49.486;9.640;2022-10-16T00:35:14;2.55;;;1.90;;
57778;SDS011;43608;49.486;9.640;2022-10-16T00:35:44;2.70;;;1.90;;
57778;SDS011;43608;49.486;9.640;2022-10-16T00:36:16;2.45;;;1.92;;
57778;SDS011;43608;49.486;9.640;2022-10-16T00:36:48;2.53;;;1.80;;
57778;SDS011;43608;49.486;9.640;2022-10-16T00:37:19;2.55;;;1.85;;
57778;SDS011;43608;49.486;9.640;2022-10-16T00:37:49;2.83;;;1.88;;
57778;SDS011;43608;49.486;9.640;2022-10-16T00:38:19;2.47;;;1.70;;
57778;SDS011;43608;49.486;9.640;2022-10-16T00:38:50;1.88;;;1.65;;
57778;SDS011;43608;49.486;9.640;2022-10-16T00:39:23;2.35;;;1.85;;
57778;SDS011;43608;49.486;9.640;2022-10-16T00:39:54;2.88;;;1.80;;
57778;SDS011;43608;49.486;9.640;2022-10-16T00:40:25;1.60;;;1.50;;
57778;SDS011;43608;49.486;9.640;2022-10-16T00:40:56;2.15;;;1.77;;
57778;SDS011;43608;49.486;9.640;2022-10-16T00:41:27;1.90;;;1.70;;
57778;SDS011;43608;49.486;9.640;2022-10-16T00:41:57;1.73;;;1.40;;
57778;SDS011;43608;49.486;9.640;2022-10-16T00:42:28;1.92;;;1.65;;
57778;SDS011;43608;49.486;9.640;2022-10-16T00:42:58;1.70;;;1.60;;
57778;SDS011;43608;49.486;9.640;2022-10-16T00:43:45;1.55;;;1.45;;
57778;SDS011;43608;49.486;9.640;2022-10-16T00:45:16;1.50;;;1.40;;
57778;SDS011;43608;49.486;9.640;2022-10-16T00:45:46;1.77;;;1.40;;
57778;SDS011;43608;49.486;9.640;2022-10-16T00:46:52;1.15;;;1.15;;
57778;SDS011;43608;49.486;9.640;2022-10-16T00:47:56;1.27;;;1.20;;
57778;SDS011;43608;49.486;9.640;2022-10-16T00:48:26;1.13;;;1.13;;
57778;SDS011;43608;49.486;9.640;2022-10-16T00:49:07;1.40;;;1.30;;
57778;SDS011;43608;49.486;9.640;2022-10-16T00:49:40;1.25;;;1.20;;
57778;SDS011;43608;49.486;9.640;2022-10-16T00:50:49;1.08;;;0.98;;
57778;SDS011;43608;49.486;9.640;2022-10-16T00:51:21;1.30;;;1.20;;
57778;SDS011;43608;49.486;9.640;2022-10-16T00:51:55;1.05;;;1.05;;
57778;SDS011;43608;49.486;9.640;2022-10-16T00:52:25;1.30;;;1.20;;
57778;SDS011;43608;49.486;9.640;2022-10-16T00:52:56;1.27;;;1.17;;
57778;SDS011;43608;49.486;9.640;2022-10-16T00:53:29;1.05;;;1.05;;
57778;SDS011;43608;49.486;9.640;2022-10-16T00:53:59;1.30;;;1.20;;
57778;SDS011;43608;49.486;9.640;2022-10-16T00:54:31;1.17;;;1.08;;
57778;SDS011;43608;49.486;9.640;2022-10-16T00:55:03;1.20;;;1.10;;
57778;SDS011;43608;49.486;9.640;2022-10-16T00:55:35;0.80;;;0.80;;
57778;SDS011;43608;49.486;9.640;2022-10-16T00:56:06;1.20;;;1.20;;
57778;SDS011;43608;49.486;9.640;2022-10-16T00:56:37;1.40;;;1.00;;
57778;SDS011;43608;49.486;9.640;2022-10-16T00:57:07;1.02;;;1.02;;
57778;SDS011;43608;49.486;9.640;2022-10-16T00:57:38;0.95;;;0.95;;
57778;SDS011;43608;49.486;9.640;2022-10-16T00:58:09;1.00;;;1.00;;
57778;SDS011;43608;49.486;9.640;2022-10-16T00:58:40;1.00;;;1.00;;
57778;SDS011;43608;49.486;9.640;2022-10-16T00:59:14;1.55;;;1.20;;
57778;SDS011;43608;49.486;9.640;2022-10-16T00:59:48;0.85;;;0.85;;
57778;SDS011;43608;49.486;9.640;2022-10-16T01:00:19;1.27;;;1.00;;
57778;SDS011;43608;49.486;9.640;2022-10-16T01:00:52;1.30;;;1.20;;
57778;SDS011;43608;49.486;9.640;2022-10-16T01:01:22;1.10;;;1.10;;
57778;SDS011;43608;49.486;9.640;2022-10-16T01:01:53;1.23;;;1.20;;
57778;SDS011;43608;49.486;9.640;2022-10-16T01:02:24;0.80;;;0.80;;
57778;SDS011;43608;49.486;9.640;2022-10-16T01:02:56;0.90;;;0.90;;
57778;SDS011;43608;49.486;9.640;2022-10-16T01:03:29;0.90;;;0.90;;
57778;SDS011;43608;49.486;9.640;2022-10-16T01:04:02;0.95;;;0.95;;
57778;SDS011;43608;49.486;9.640;2022-10-16T01:04:36;1.00;;;1.00;;
57778;SDS011;43608;49.486;9.640;2022-10-16T01:05:14;0.95;;;0.95;;
57778;SDS011;43608;49.486;9.640;2022-10-16T01:05:46;1.08;;;1.05;;
57778;SDS011;43608;49.486;9.640;2022-10-16T01:06:24;0.73;;;0.73;;
57778;SDS011;43608;49.486;9.640;2022-10-16T01:08:18;1.00;;;1.00;;
57778;SDS011;43608;49.486;9.640;2022-10-16T01:10:59;1.02;;;1.02;;
57778;SDS011;43608;49.486;9.640;2022-10-16T01:11:41;0.82;;;0.82;;
57778;SDS011;43608;49.486;9.640;2022-10-16T01:13:12;0.90;;;0.90;;
57778;SDS011;43608;49.486;9.640;2022-10-16T01:13:54;1.00;;;1.00;;
57778;SDS011;43608;49.486;9.640;2022-10-16T01:14:32;0.90;;;0.90;;
57778;SDS011;43608;49.486;9.640;2022-10-16T01:17:14;0.93;;;0.93;;
57778;SDS011;43608;49.486;9.640;2022-10-16T01:17:51;0.50;;;0.50;;
57778;SDS011;43608;49.486;9.640;2022-10-16T01:18:32;1.00;;;1.00;;
57778;SDS011;43608;49.486;9.640;2022-10-16T01:19:16;0.82;;;0.82;;
57778;SDS011;43608;49.486;9.640;2022-10-16T01:20:27;0.82;;;0.82;;
57778;SDS011;43608;49.486;9.640;2022-10-16T01:21:41;0.80;;;0.80;;
57778;SDS011;43608;49.486;9.640;2022-10-16T01:22:14;0.90;;;0.90;;
57778;SDS011;43608;49.486;9.640;2022-10-16T01:24:40;0.90;;;0.90;;
57778;SDS011;43608;49.486;9.640;2022-10-16T01:25:20;0.90;;;0.90;;
57778;SDS011;43608;49.486;9.640;2022-10-16T01:26:20;1.05;;;0.98;;
57778;SDS011;43608;49.486;9.640;2022-10-16T01:27:07;1.00;;;0.90;;
57778;SDS011;43608;49.486;9.640;2022-10-16T01:27:48;1.55;;;1.38;;
57778;SDS011;43608;49.486;9.640;2022-10-16T01:28:21;2.38;;;1.65;;
57778;SDS011;43608;49.486;9.640;2022-10-16T01:29:00;3.42;;;2.20;;
57778;SDS011;43608;49.486;9.640;2022-10-16T01:30:30;4.30;;;2.80;;
57778;SDS011;43608;49.486;9.640;2022-10-16T01:31:03;5.05;;;3.20;;
57778;SDS011;43608;49.486;9.640;2022-10-16T01:31:35;4.82;;;3.10;;
57778;SDS011;43608;49.486;9.640;2022-10-16T01:33:33;5.03;;;3.25;;
57778;SDS011;43608;49.486;9.640;2022-10-16T01:34:19;6.18;;;3.70;;
57778;SDS011;43608;49.486;9.640;2022-10-16T01:34:58;5.55;;;3.55;;
57778;SDS011;43608;49.486;9.640;2022-10-16T01:35:37;5.68;;;3.88;;
57778;SDS011;43608;49.486;9.640;2022-10-16T01:36:17;6.25;;;4.03;;
57778;SDS011;43608;49.486;9.640;2022-10-16T01:36:54;7.28;;;4.50;;
57778;SDS011;43608;49.486;9.640;2022-10-16T01:38:14;8.07;;;4.90;;
57778;SDS011;43608;49.486;9.640;2022-10-16T01:38:49;7.75;;;4.80;;
57778;SDS011;43608;49.486;9.640;2022-10-16T01:39:25;7.15;;;4.15;;
57778;SDS011;43608;49.486;9.640;2022-10-16T01:40:00;7.57;;;4.57;;
57778;SDS011;43608;49.486;9.640;2022-10-16T01:40:36;7.15;;;4.20;;
57778;SDS011;43608;49.486;9.640;2022-10-16T01:41:10;7.68;;;4.60;;
57778;SDS011;43608;49.486;9.640;2022-10-16T01:41:45;7.38;;;4.28;;
57778;SDS011;43608;49.486;9.640;2022-10-16T01:42:24;6.03;;;3.80;;
57778;SDS011;43608;49.486;9.640;2022-10-16T01:43:02;6.47;;;3.75;;
57778;SDS011;43608;49.486;9.640;2022-10-16T01:43:43;6.70;;;3.70;;
57778;SDS011;43608;49.486;9.640;2022-10-16T01:44:19;6.25;;;3.70;;
57778;SDS011;43608;49.486;9.640;2022-10-16T01:44:54;6.38;;;3.70;;
57778;SDS011;43608;49.486;9.640;2022-10-16T01:45:26;5.90;;;3.38;;
57778;SDS011;43608;49.486;9.640;2022-10-16T01:46:00;6.68;;;3.60;;
57778;SDS011;43608;49.486;9.640;2022-10-16T01:46:32;5.65;;;3.20;;
57778;SDS011;43608;49.486;9.640;2022-10-16T01:47:04;5.18;;;3.13;;
57778;SDS011;43608;49.486;9.640;2022-10-16T01:47:38;5.15;;;3.20;;
57778;SDS011;43608;49.486;9.640;2022-10-16T01:48:09;4.10;;;2.75;;
57778;SDS011;43608;49.486;9.640;2022-10-16T01:48:43;4.10;;;2.42;;
57778;SDS011;43608;49.486;9.640;2022-10-16T01:49:15;3.95;;;2.70;;
57778;SDS011;43608;49.486;9.640;2022-10-16T01:49:47;4.28;;;2.50;;
57778;SDS011;43608;49.486;9.640;2022-10-16T01:50:18;3.50;;;2.10;;
57778;SDS011;43608;49.486;9.640;2022-10-16T01:51:00;4.22;;;2.40;;
57778;SDS011;43608;49.486;9.640;2022-10-16T01:51:35;2.65;;;1.90;;
57778;SDS011;43608;49.486;9.640;2022-10-16T01:52:17;2.92;;;2.10;;
57778;SDS011;43608;49.486;9.640;2022-10-16T01:52:52;2.88;;;2.03;;
57778;SDS011;43608;49.486;9.640;2022-10-16T01:53:25;2.75;;;1.90;;
57778;SDS011;43608;49.486;9.640;2022-10-16T01:53:57;2.47;;;1.80;;
57778;SDS011;43608;49.486;9.640;2022-10-16T01:54:31;3.17;;;1.95;;
57778;SDS011;43608;49.486;9.640;2022-10-16T01:55:05;2.83;;;1.80;;
57778;SDS011;43608;49.486;9.640;2022-10-16T01:55:40;2.55;;;1.70;;
57778;SDS011;43608;49.486;9.640;2022-10-16T01:56:15;1.92;;;1.60;;
57778;SDS011;43608;49.486;9.640;2022-10-16T01:56:48;2.30;;;1.80;;
57778;SDS011;43608;49.486;9.640;2022-10-16T01:57:20;2.40;;;1.70;;
57778;SDS011;43608;49.486;9.640;2022-10-16T01:57:54;2.45;;;1.70;;
57778;SDS011;43608;49.486;9.640;2022-10-16T01:58:26;2.15;;;1.60;;
57778;SDS011;43608;49.486;9.640;2022-10-16T01:59:01;1.88;;;1.67;;
57778;SDS011;43608;49.486;9.640;2022-10-16T01:59:46;1.88;;;1.52;;
57778;SDS011;43608;49.486;9.640;2022-10-16T02:00:19;1.95;;;1.58;;
57778;SDS011;43608;49.486;9.640;2022-10-16T02:00:52;1.50;;;1.40;;
57778;SDS011;43608;49.486;9.640;2022-10-16T02:01:25;1.65;;;1.52;;
57778;SDS011;43608;49.486;9.640;2022-10-16T02:01:59;1.50;;;1.40;;
57778;SDS011;43608;49.486;9.640;2022-10-16T02:02:34;1.70;;;1.40;;
57778;SDS011;43608;49.486;9.640;2022-10-16T02:03:04;1.40;;;1.30;;
57778;SDS011;43608;49.486;9.640;2022-10-16T02:03:37;1.58;;;1.40;;
57778;SDS011;43608;49.486;9.640;2022-10-16T02:04:15;1.50;;;1.40;;
57778;SDS011;43608;49.486;9.640;2022-10-16T02:04:49;1.15;;;1.15;;
57778;SDS011;43608;49.486;9.640;2022-10-16T02:06:04;1.20;;;1.10;;
57778;SDS011;43608;49.486;9.640;2022-10-16T02:06:34;1.52;;;1.35;;
57778;SDS011;43608;49.486;9.640;2022-10-16T02:07:05;1.63;;;1.30;;
57778;SDS011;43608;49.486;9.640;2022-10-16T02:07:36;1.40;;;1.30;;
57778;SDS011;43608;49.486;9.640;2022-10-16T02:08:07;1.80;;;1.40;;
57778;SDS011;43608;49.486;9.640;2022-10-16T02:08:37;2.30;;;1.70;;
57778;SDS011;43608;49.486;9.640;2022-10-16T02:09:10;2.83;;;1.90;;
57778;SDS011;43608;49.486;9.640;2022-10-16T02:09:41;3.13;;;1.85;;
57778;SDS011;43608;49.486;9.640;2022-10-16T02:10:11;3.35;;;2.10;;
57778;SDS011;43608;49.486;9.640;2022-10-16T02:10:41;3.53;;;2.08;;
57778;SDS011;43608;49.486;9.640;2022-10-16T02:11:12;2.75;;;1.90;;
57778;SDS011;43608;49.486;9.640;2022-10-16T02:11:43;2.67;;;1.92;;
57778;SDS011;43608;49.486;9.640;2022-10-16T02:12:20;2.92;;;2.03;;
57778;SDS011;43608;49.486;9.640;2022-10-16T02:12:58;3.40;;;2.30;;
57778;SDS011;43608;49.486;9.640;2022-10-16T02:14:28;4.32;;;2.67;;
57778;SDS011;43608;49.486;9.640;2022-10-16T02:15:00;5.13;;;3.13;;
57778;SDS011;43608;49.486;9.640;2022-10-16T02:15:30;4.80;;;3.10;;
57778;SDS011;43608;49.486;9.640;2022-10-16T02:16:01;4.82;;;3.20;;
57778;SDS011;43608;49.486;9.640;2022-10-16T02:16:38;4.57;;;2.97;;
57778;SDS011;43608;49.486;9.640;2022-10-16T02:17:16;5.15;;;3.38;;
57778;SDS011;43608;49.486;9.640;2022-10-16T02:17:48;6.40;;;3.08;;
57778;SDS011;43608;49.486;9.640;2022-10-16T02:18:18;5.40;;;3.20;;
57778;SDS011;43608;49.486;9.640;2022-10-16T02:18:49;4.95;;;2.97;;
57778;SDS011;43608;49.486;9.640;2022-10-16T02:19:19;4.50;;;2.90;;
57778;SDS011;43608;49.486;9.640;2022-10-16T02:19:52;4.95;;;3.22;;
57778;SDS011;43608;49.486;9.640;2022-10-16T02:20:27;4.88;;;2.90;;
57778;SDS011;43608;49.486;9.640;2022-10-16T02:21:02;5.03;;;3.10;;
57778;SDS011;43608;49.486;9.640;2022-10-16T02:21:44;4.50;;;2.80;;
57778;SDS011;43608;49.486;9.640;2022-10-16T02:22:30;4.35;;;2.78;;
57778;SDS011;43608;49.486;9.640;2022-10-16T02:23:03;3.67;;;2.55;;
57778;SDS011;43608;49.486;9.640;2022-10-16T02:23:45;4.38;;;2.60;;
57778;SDS011;43608;49.486;9.640;2022-10-16T02:25:35;3.53;;;2.20;;
57778;SDS011;43608;49.486;9.640;2022-10-16T02:26:12;3.10;;;2.03;;
57778;SDS011;43608;49.486;9.640;2022-10-16T02:28:45;2.67;;;1.90;;
57778;SDS011;43608;49.486;9.640;2022-10-16T02:29:22;3.50;;;2.10;;
57778;SDS011;43608;49.486;9.640;2022-10-16T02:29:59;2.40;;;1.70;;
57778;SDS011;43608;49.486;9.640;2022-10-16T02:31:08;2.67;;;1.80;;
57778;SDS011;43608;49.486;9.640;2022-10-16T02:31:43;2.15;;;1.55;;
57778;SDS011;43608;49.486;9.640;2022-10-16T02:32:19;2.15;;;1.55;;
57778;SDS011;43608;49.486;9.640;2022-10-16T02:32:53;2.20;;;1.63;;
57778;SDS011;43608;49.486;9.640;2022-10-16T02:33:24;1.60;;;1.40;;
57778;SDS011;43608;49.486;9.640;2022-10-16T02:33:57;1.55;;;1.45;;
57778;SDS011;43608;49.486;9.640;2022-10-16T02:34:30;1.73;;;1.50;;
57778;SDS011;43608;49.486;9.640;2022-10-16T02:35:02;1.65;;;1.40;;
57778;SDS011;43608;49.486;9.640;2022-10-16T02:35:34;1.45;;;1.30;;
57778;SDS011;43608;49.486;9.640;2022-10-16T02:36:06;1.40;;;1.30;;
57778;SDS011;43608;49.486;9.640;2022-10-16T02:36:37;1.40;;;1.30;;
57778;SDS011;43608;49.486;9.640;2022-10-16T02:37:10;1.98;;;1.40;;
57778;SDS011;43608;49.486;9.640;2022-10-16T02:37:41;1.40;;;1.30;;
57778;SDS011;43608;49.486;9.640;2022-10-16T02:38:12;1.20;;;1.15;;
57778;SDS011;43608;49.486;9.640;2022-10-16T02:38:44;1.38;;;1.30;;
57778;SDS011;43608;49.486;9.640;2022-10-16T02:39:15;1.48;;;1.38;;
57778;SDS011;43608;49.486;9.640;2022-10-16T02:39:48;1.35;;;1.25;;
57778;SDS011;43608;49.486;9.640;2022-10-16T02:40:18;1.40;;;1.30;;
57778;SDS011;43608;49.486;9.640;2022-10-16T02:40:50;1.77;;;1.30;;
57778;SDS011;43608;49.486;9.640;2022-10-16T02:41:21;1.40;;;1.30;;
57778;SDS011;43608;49.486;9.640;2022-10-16T02:41:53;0.98;;;0.98;;
57778;SDS011;43608;49.486;9.640;2022-10-16T02:42:33;1.15;;;1.08;;
57778;SDS011;43608;49.486;9.640;2022-10-16T02:43:06;2.00;;;1.08;;
57778;SDS011;43608;49.486;9.640;2022-10-16T02:43:36;0.88;;;0.88;;
57778;SDS011;43608;49.486;9.640;2022-10-16T02:44:07;1.13;;;1.05;;
57778;SDS011;43608;49.486;9.640;2022-10-16T02:44:37;1.10;;;1.10;;
57778;SDS011;43608;49.486;9.640;2022-10-16T02:45:08;1.00;;;1.00;;
57778;SDS011;43608;49.486;9.640;2022-10-16T02:45:39;1.23;;;1.13;;
57778;SDS011;43608;49.486;9.640;2022-10-16T02:46:10;1.20;;;1.10;;
57778;SDS011;43608;49.486;9.640;2022-10-16T02:46:40;1.25;;;1.15;;
57778;SDS011;43608;49.486;9.640;2022-10-16T02:47:11;1.00;;;1.00;;
57778;SDS011;43608;49.486;9.640;2022-10-16T02:47:42;1.30;;;1.20;;
57778;SDS011;43608;49.486;9.640;2022-10-16T02:48:12;1.25;;;1.20;;
57778;SDS011;43608;49.486;9.640;2022-10-16T02:48:43;1.48;;;1.38;;
57778;SDS011;43608;49.486;9.640;2022-10-16T02:49:13;1.20;;;1.20;;
57778;SDS011;43608;49.486;9.640;2022-10-16T02:49:44;1.20;;;1.20;;
57778;SDS011;43608;49.486;9.640;2022-10-16T02:50:14;1.30;;;1.20;;
57778;SDS011;43608;49.486;9.640;2022-10-16T02:50:45;1.40;;;1.30;;
57778;SDS011;43608;49.486;9.640;2022-10-16T02:51:15;1.20;;;1.20;;
57778;SDS011;43608;49.486;9.640;2022-10-16T02:51:45;1.35;;;1.30;;
57778;SDS011;43608;49.486;9.640;2022-10-16T02:52:16;1.27;;;1.17;;
57778;SDS011;43608;49.486;9.640;2022-10-16T02:52:46;1.40;;;1.30;;
57778;SDS011;43608;49.486;9.640;2022-10-16T02:53:17;1.10;;;1.10;;
57778;SDS011;43608;49.486;9.640;2022-10-16T02:53:47;1.23;;;1.15;;
57778;SDS011;43608;49.486;9.640;2022-10-16T02:54:17;1.40;;;1.30;;
57778;SDS011;43608;49.486;9.640;2022-10-16T02:54:48;1.00;;;1.00;;
57778;SDS011;43608;49.486;9.640;2022-10-16T02:55:18;1.30;;;1.20;;
57778;SDS011;43608;49.486;9.640;2022-10-16T02:55:48;1.40;;;1.30;;
57778;SDS011;43608;49.486;9.640;2022-10-16T02:56:19;1.30;;;1.20;;
57778;SDS011;43608;49.486;9.640;2022-10-16T02:56:49;1.35;;;1.25;;
57778;SDS011;43608;49.486;9.640;2022-10-16T02:57:20;1.45;;;1.35;;
57778;SDS011;43608;49.486;9.640;2022-10-16T02:57:50;1.33;;;1.23;;
57778;SDS011;43608;49.486;9.640;2022-10-16T02:58:20;1.38;;;1.27;;
57778;SDS011;43608;49.486;9.640;2022-10-16T02:58:51;1.20;;;1.20;;
57778;SDS011;43608;49.486;9.640;2022-10-16T02:59:21;1.10;;;1.10;;
57778;SDS011;43608;49.486;9.640;2022-10-16T02:59:52;1.50;;;1.40;;
57778;SDS011;43608;49.486;9.640;2022-10-16T03:00:22;1.17;;;1.10;;
57778;SDS011;43608;49.486;9.640;2022-10-16T03:00:53;1.42;;;1.33;;
57778;SDS011;43608;49.486;9.640;2022-10-16T03:01:23;1.33;;;1.30;;
57778;SDS011;43608;49.486;9.640;2022-10-16T03:01:53;1.40;;;1.30;;
57778;SDS011;43608;49.486;9.640;2022-10-16T03:02:24;1.13;;;1.13;;
57778;SDS011;43608;49.486;9.640;2022-10-16T03:02:54;1.10;;;1.10;;
57778;SDS011;43608;49.486;9.640;2022-10-16T03:03:25;1.23;;;1.20;;
57778;SDS011;43608;49.486;9.640;2022-10-16T03:03:55;1.30;;;1.20;;
57778;SDS011;43608;49.486;9.640;2022-10-16T03:04:25;1.50;;;1.40;;
57778;SDS011;43608;49.486;9.640;2022-10-16T03:04:56;1.40;;;1.20;;
57778;SDS011;43608;49.486;9.640;2022-10-16T03:05:26;0.95;;;0.95;;
57778;SDS011;43608;49.486;9.640;2022-10-16T03:05:57;1.23;;;1.13;;
57778;SDS011;43608;49.486;9.640;2022-10-16T03:06:27;1.20;;;1.20;;
57778;SDS011;43608;49.486;9.640;2022-10-16T03:06:57;1.20;;;1.15;;
57778;SDS011;43608;49.486;9.640;2022-10-16T03:07:28;1.17;;;1.17;;
57778;SDS011;43608;49.486;9.640;2022-10-16T03:07:58;1.63;;;1.20;;
57778;SDS011;43608;49.486;9.640;2022-10-16T03:08:30;1.00;;;1.00;;
57778;SDS011;43608;49.486;9.640;2022-10-16T03:09:01;1.23;;;1.20;;
57778;SDS011;43608;49.486;9.640;2022-10-16T03:09:31;1.10;;;1.10;;
57778;SDS011;43608;49.486;9.640;2022-10-16T03:10:01;1.20;;;1.20;;
57778;SDS011;43608;49.486;9.640;2022-10-16T03:10:32;1.13;;;1.10;;
57778;SDS011;43608;49.486;9.640;2022-10-16T03:11:02;1.17;;;1.10;;
57778;SDS011;43608;49.486;9.640;2022-10-16T03:11:33;1.27;;;1.08;;
57778;SDS011;43608;49.486;9.640;2022-10-16T03:12:03;1.48;;;1.38;;
57778;SDS011;43608;49.486;9.640;2022-10-16T03:12:34;1.40;;;1.30;;
57778;SDS011;43608;49.486;9.640;2022-10-16T03:13:04;1.30;;;1.20;;
57778;SDS011;43608;49.486;9.640;2022-10-16T03:13:34;1.10;;;1.10;;
57778;SDS011;43608;49.486;9.640;2022-10-16T03:14:05;1.40;;;1.30;;
57778;SDS011;43608;49.486;9.640;2022-10-16T03:14:35;1.20;;;1.20;;
57778;SDS011;43608;49.486;9.640;2022-10-16T03:15:05;1.42;;;1.33;;
57778;SDS011;43608;49.486;9.640;2022-10-16T03:15:37;1.23;;;1.13;;
57778;SDS011;43608;49.486;9.640;2022-10-16T03:16:07;1.33;;;1.23;;
57778;SDS011;43608;49.486;9.640;2022-10-16T03:16:37;1.08;;;1.08;;
57778;SDS011;43608;49.486;9.640;2022-10-16T03:17:08;1.10;;;1.10;;
57778;SDS011;43608;49.486;9.640;2022-10-16T03:17:38;1.20;;;1.20;;
57778;SDS011;43608;49.486;9.640;2022-10-16T03:18:09;1.20;;;1.20;;
57778;SDS011;43608;49.486;9.640;2022-10-16T03:18:39;1.23;;;1.23;;
57778;SDS011;43608;49.486;9.640;2022-10-16T03:19:09;1.20;;;1.10;;
57778;SDS011;43608;49.486;9.640;2022-10-16T03:19:40;1.20;;;1.20;;
57778;SDS011;43608;49.486;9.640;2022-10-16T03:20:10;1.17;;;1.17;;
57778;SDS011;43608;49.486;9.640;2022-10-16T03:20:42;1.10;;;1.10;;
57778;SDS011;43608;49.486;9.640;2022-10-16T03:21:12;1.40;;;1.30;;
57778;SDS011;43608;49.486;9.640;2022-10-16T03:21:43;1.17;;;1.17;;
57778;SDS011;43608;49.486;9.640;2022-10-16T03:22:14;1.00;;;1.00;;
57778;SDS011;43608;49.486;9.640;2022-10-16T03:22:44;1.80;;;1.42;;
57778;SDS011;43608;49.486;9.640;2022-10-16T03:23:14;1.25;;;1.23;;
57778;SDS011;43608;49.486;9.640;2022-10-16T03:23:45;1.10;;;1.10;;
57778;SDS011;43608;49.486;9.640;2022-10-16T03:24:15;1.13;;;1.10;;
57778;SDS011;43608;49.486;9.640;2022-10-16T03:24:45;1.10;;;1.00;;
57778;SDS011;43608;49.486;9.640;2022-10-16T03:25:16;1.20;;;1.20;;
57778;SDS011;43608;49.486;9.640;2022-10-16T03:25:46;1.10;;;1.10;;
57778;SDS011;43608;49.486;9.640;2022-10-16T03:26:17;1.13;;;1.13;;
57778;SDS011;43608;49.486;9.640;2022-10-16T03:26:47;1.10;;;1.10;;
57778;SDS011;43608;49.486;9.640;2022-10-16T03:27:17;1.20;;;1.20;;
57778;SDS011;43608;49.486;9.640;2022-10-16T03:27:48;1.30;;;1.20;;
57778;SDS011;43608;49.486;9.640;2022-10-16T03:28:18;1.00;;;1.00;;
57778;SDS011;43608;49.486;9.640;2022-10-16T03:28:48;0.90;;;0.90;;
57778;SDS011;43608;49.486;9.640;2022-10-16T03:29:19;1.20;;;1.20;;
57778;SDS011;43608;49.486;9.640;2022-10-16T03:29:49;1.00;;;1.00;;
57778;SDS011;43608;49.486;9.640;2022-10-16T03:30:19;1.02;;;1.00;;
57778;SDS011;43608;49.486;9.640;2022-10-16T03:30:50;1.17;;;1.10;;
57778;SDS011;43608;49.486;9.640;2022-10-16T03:31:21;1.15;;;1.15;;
57778;SDS011;43608;49.486;9.640;2022-10-16T03:31:51;1.00;;;1.00;;
57778;SDS011;43608;49.486;9.640;2022-10-16T03:32:22;1.17;;;1.17;;
57778;SDS011;43608;49.486;9.640;2022-10-16T03:32:54;1.35;;;1.25;;
57778;SDS011;43608;49.486;9.640;2022-10-16T03:33:25;1.10;;;1.10;;
57778;SDS011;43608;49.486;9.640;2022-10-16T03:33:55;1.20;;;1.20;;
57778;SDS011;43608;49.486;9.640;2022-10-16T03:34:26;1.27;;;1.20;;
57778;SDS011;43608;49.486;9.640;2022-10-16T03:34:57;1.10;;;1.10;;
57778;SDS011;43608;49.486;9.640;2022-10-16T03:35:28;1.20;;;1.20;;
57778;SDS011;43608;49.486;9.640;2022-10-16T03:35:58;1.30;;;1.20;;
57778;SDS011;43608;49.486;9.640;2022-10-16T03:36:28;1.20;;;1.20;;
57778;SDS011;43608;49.486;9.640;2022-10-16T03:36:59;1.10;;;1.10;;
57778;SDS011;43608;49.486;9.640;2022-10-16T03:37:29;1.30;;;1.20;;